FW6711 Weather Reports


Display with metric or nautical units.
time (UTC)temp
F
wind
direction
speed
MPH
gust
MPH
rain 1hr
in
rain 24hr
in
rain mn
in
humidity
%
barometer
mb
20210728113228 70 339 0.0 0.0 0.00 0.08 0.05 98 972.8
20210728111711 70 342 0.0 0.0 0.00 0.08 0.05 98 972.7
20210728110235 70 342 0.0 0.0 0.00 0.08 0.05 98 972.7
20210728104619 70 342 0.0 0.0 0.01 0.08 0.05 98 972.5
20210728103222 70 342 0.0 0.0 0.01 0.08 0.05 98 972.4
20210728101716 70 342 0.0 0.0 0.01 0.08 0.05 98 972.2
20210728100120 70 342 0.0 0.0 0.01 0.08 0.05 98 972.2
20210728094651 70 342 0.0 0.0 0.00 0.07 0.04 98 972.2
20210728093135 70 342 0.0 0.0 0.00 0.07 0.04 98 972.2
20210728091710 70 342 0.0 0.0 0.00 0.07 0.04 98 972.0
20210728090101 71 342 0.0 0.0 0.00 0.07 0.04 98 972.1
20210728084624 71 342 0.0 0.0 0.00 0.07 0.04 98 972.2
20210728083129 71 342 0.0 0.0 0.00 0.07 0.04 98 972.1
20210728081725 71 342 0.0 0.0 0.00 0.07 0.04 98 972.1
20210728080056 72 342 0.0 0.0 0.00 0.07 0.04 98 972.3
20210728074629 72 342 0.0 0.0 0.00 0.07 0.04 98 972.3
20210728073115 72 342 0.0 0.0 0.00 0.07 0.04 98 972.4
20210728071558 72 342 0.0 0.0 0.00 0.07 0.04 98 972.6
20210728070104 72 342 0.0 0.0 0.00 0.07 0.04 98 972.6
20210728064709 72 342 0.0 0.0 0.00 0.07 0.04 98 972.6
20210728063100 73 342 0.0 0.0 0.00 0.07 0.04 98 972.2
20210728061623 73 342 0.0 0.0 0.00 0.07 0.04 98 972.0
20210728060055 73 342 0.0 0.0 0.01 0.07 0.04 97 972.1
20210728054617 73 342 0.0 0.0 0.02 0.07 0.04 97 972.1
20210728053112 73 341 0.0 0.0 0.04 0.07 0.04 97 972.1
20210728051631 73 341 0.0 0.0 0.04 0.07 0.04 97 972.3
20210728050110 73 341 0.0 0.0 0.03 0.06 0.03 97 972.2
20210728044601 73 341 0.0 0.0 0.02 0.05 0.02 97 972.3
20210728043031 73 341 0.0 0.0 0.00 0.03 0.00 97 972.2
20210728041605 73 341 0.0 0.0 0.00 0.03 0.00 97 972.2
20210728040027 73 341 0.0 0.0 0.00 0.03 0.00 97 972.0
20210728034604 74 341 0.0 0.0 0.00 0.03 0.03 97 972.0
20210728033037 74 341 0.0 0.0 0.00 0.03 0.03 97 972.0
20210728031606 74 341 0.0 0.0 0.00 0.03 0.03 96 972.0
20210728030048 74 341 0.0 0.0 0.00 0.03 0.03 97 972.1
20210728024530 74 341 0.0 0.0 0.00 0.03 0.03 96 971.9
20210728023111 75 341 0.0 0.0 0.00 0.03 0.03 96 971.7
20210728021547 75 341 0.0 0.0 0.00 0.03 0.03 96 971.4
20210728020016 75 341 0.0 0.0 0.00 0.03 0.03 96 971.3
20210728014559 76 341 0.0 0.0 0.00 0.03 0.03 96 971.2
20210728013031 76 341 0.0 0.0 0.00 0.03 0.03 95 971.4
20210728011522 76 341 0.0 0.0 0.00 0.03 0.03 95 971.4
20210728010021 76 341 0.0 0.0 0.00 0.03 0.03 94 971.4
20210728004543 77 341 0.0 0.0 0.00 0.03 0.03 94 971.1
20210728003024 77 311 0.0 0.0 0.00 0.03 0.03 93 970.8
20210728001520 78 311 0.0 2.0 0.00 0.03 0.03 92 971.0
20210728000028 78 40 0.0 1.0 0.00 0.03 0.03 91 971.3
20210727234523 79 326 0.0 0.0 0.00 0.03 0.03 91 971.3
20210727233015 79 326 0.0 0.0 0.00 0.03 0.03 91 971.3
20210727231513 79 326 0.0 1.0 0.00 0.03 0.03 91 971.2
20210727230021 79 138 0.0 1.0 0.00 0.03 0.03 90 970.7
20210727224510 78 13 0.0 0.0 0.00 0.03 0.03 92 971.0
20210727223009 78 13 0.0 1.0 0.00 0.03 0.03 92 970.8
20210727221508 78 13 0.0 0.0 0.00 0.03 0.03 92 971.0
20210727220017 78 13 0.0 0.0 0.00 0.03 0.03 92 970.6
20210727214507 78 13 0.0 0.0 0.00 0.03 0.03 91 970.7
20210727213005 78 13 0.0 0.0 0.00 0.03 0.03 91 970.6
20210727211532 79 349 0.0 1.0 0.03 0.03 0.03 92 970.6
20210727210006 79 12 0.0 2.0 0.03 0.03 0.03 91 970.7
20210727204511 80 51 0.0 3.0 0.03 0.03 0.03 89 970.5
20210727203002 81 11 0.0 3.0 0.03 0.03 0.03 85 970.4
20210727201500 85 244 0.0 5.0 0.00 0.00 0.00 75 970.6
20210727200148 88 113 0.0 1.0 0.00 0.00 0.00 73 970.6
20210727194649 91 113 0.0 1.0 0.00 0.00 0.00 67 970.8
20210727193236 93 295 0.0 4.0 0.00 0.00 0.00 62 970.8
20210727191705 94 274 0.0 2.0 0.00 0.00 0.00 59 970.9
20210727190151 93 198 0.0 2.0 0.00 0.00 0.00 59 971.0
20210727184622 92 75 0.0 3.0 0.00 0.00 0.00 63 971.0
20210727183146 91 107 0.0 4.0 0.00 0.00 0.00 63 971.1
20210727181813 91 105 0.0 4.0 0.00 0.00 0.00 65 971.4
20210727180117 91 226 0.0 3.0 0.00 0.00 0.00 63 971.7
20210727174656 91 87 0.0 3.0 0.00 0.00 0.00 64 972.0
20210727173115 90 329 1.0 4.0 0.00 0.00 0.00 66 972.2
20210727171638 88 209 2.0 4.0 0.00 0.00 0.00 68 972.2
20210727170231 88 221 0.0 3.0 0.00 0.00 0.00 69 972.3
20210727164559 88 337 0.0 3.0 0.00 0.00 0.00 69 972.5
20210727163221 86 331 0.0 2.0 0.00 0.00 0.00 72 972.6
20210727161544 87 317 0.0 2.0 0.00 0.00 0.00 71 972.6
20210727160128 88 347 1.0 3.0 0.00 0.00 0.00 69 972.7
20210727154551 86 123 0.0 3.0 0.00 0.00 0.00 71 972.8
20210727153124 87 80 0.0 2.0 0.00 0.00 0.00 72 972.7
20210727151529 86 65 0.0 3.0 0.00 0.00 0.00 71 972.6
20210727150116 85 140 0.0 2.0 0.00 0.00 0.00 70 972.6
20210727144533 86 190 0.0 3.0 0.00 0.00 0.00 71 972.5
20210727143021 84 219 0.0 1.0 0.00 0.00 0.00 74 972.5
20210727141549 83 180 0.0 0.0 0.00 0.00 0.00 76 972.5
20210727140100 81 111 0.0 2.0 0.00 0.00 0.00 78 972.7
20210727134513 81 126 0.0 1.0 0.00 0.00 0.00 79 972.7
20210727133012 80 322 0.0 1.0 0.00 0.00 0.00 81 972.7
20210727131503 77 327 0.0 3.0 0.00 0.00 0.00 91 972.5
20210727130319 75 337 0.0 0.0 0.00 0.00 0.00 97 972.5
20210727124627 73 221 0.0 0.0 0.00 0.00 0.00 98 972.5
20210727123120 71 221 0.0 0.0 0.00 0.00 0.00 98 972.2
20210727121631 71 221 0.0 0.0 0.00 0.00 0.00 98 972.3
20210727120248 70 221 0.0 0.0 0.00 0.00 0.00 98 972.2
20210727114646 70 221 0.0 0.0 0.00 0.00 0.00 98 972.2